Time;durP1;ratioP1;P1;durP2;ratioP2;P2;SDS_P1;SDS_P2;PMS_P1;PMS_P2;Temp;Humidity;BMP_temperature;BMP_pressure;BME280_temperature;BME280_humidity;BME280_pressure;Samples;Min_cycle;Max_cycle;Signal;HPM_P1;HPM_P2
2022/12/11 00:00:16;;;;;;;40.43;22.30;;;1.10;99.90;;;;;;5057411;28;20565;-67
2022/12/11 00:02:41;;;;;;;32.33;19.53;;;1.10;99.90;;;;;;5073577;28;20201;-67
2022/12/11 00:05:07;;;;;;;25.13;17.73;;;1.10;99.90;;;;;;5071136;28;20170;-67
2022/12/11 00:07:33;;;;;;;32.07;19.10;;;1.10;99.90;;;;;;5053929;28;20174;-67
2022/12/11 00:09:58;;;;;;;31.57;16.77;;;1.10;99.90;;;;;;5054163;28;20179;-67
2022/12/11 00:12:24;;;;;;;38.10;16.80;;;1.10;99.90;;;;;;5073756;28;20194;-67
2022/12/11 00:14:50;;;;;;;37.77;20.80;;;1.10;99.90;;;;;;5073163;28;20170;-67
2022/12/11 00:17:15;;;;;;;28.00;16.57;;;1.10;99.90;;;;;;5054266;28;20182;-67
2022/12/11 00:19:41;;;;;;;28.33;16.17;;;1.10;99.90;;;;;;5053415;28;20242;-67
2022/12/11 00:22:06;;;;;;;23.43;15.87;;;1.10;99.90;;;;;;5071447;28;20198;-67
2022/12/11 00:24:32;;;;;;;37.53;19.37;;;1.10;99.90;;;;;;5073629;28;20201;-67
2022/12/11 00:26:59;;;;;;;26.00;15.33;;;1.10;99.90;;;;;;5056713;28;20187;-67
2022/12/11 00:29:24;;;;;;;29.20;15.73;;;1.10;99.90;;;;;;5053283;28;20271;-67
2022/12/11 00:31:50;;;;;;;27.83;17.23;;;1.10;99.90;;;;;;5068016;28;20202;-67
2022/12/11 00:34:15;;;;;;;35.87;16.77;;;1.10;99.90;;;;;;5073471;28;20209;-67
2022/12/11 00:36:41;;;;;;;26.37;13.13;;;1.10;99.90;;;;;;5060115;28;20186;-67
2022/12/11 00:39:07;;;;;;;26.93;15.97;;;1.00;99.90;;;;;;5053812;28;20199;-67
2022/12/11 00:41:32;;;;;;;32.60;16.67;;;1.10;99.90;;;;;;5066837;28;20260;-67
2022/12/11 00:43:58;;;;;;;31.70;17.63;;;1.10;99.90;;;;;;5073664;28;20660;-67
2022/12/11 00:46:23;;;;;;;30.93;17.73;;;1.10;99.90;;;;;;5062414;28;20723;-67
2022/12/11 00:48:49;;;;;;;29.63;20.27;;;1.20;99.90;;;;;;5053023;28;20258;-67
2022/12/11 00:51:16;;;;;;;37.77;19.03;;;1.20;99.90;;;;;;5061023;28;20702;-67
2022/12/11 00:53:41;;;;;;;24.73;16.60;;;1.10;99.90;;;;;;5073207;28;20173;-67
2022/12/11 00:56:21;;;;;;;30.57;17.37;;;1.10;99.90;;;;;;5065729;28;20190;-67
2022/12/11 00:58:48;;;;;;;44.80;16.27;;;1.10;99.90;;;;;;5052815;28;20198;-67
2022/12/11 01:01:18;;;;;;;33.97;18.07;;;1.20;99.90;;;;;;5060318;28;20198;-67
2022/12/11 01:03:43;;;;;;;29.83;16.70;;;1.20;99.90;;;;;;5072903;28;20166;-68
2022/12/11 01:06:14;;;;;;;27.17;15.83;;;1.20;99.90;;;;;;5065457;28;20274;-68
2022/12/11 01:08:40;;;;;;;35.80;18.40;;;1.20;99.90;;;;;;5053052;28;20186;-67
2022/12/11 01:11:09;;;;;;;34.80;16.23;;;1.20;99.90;;;;;;5059533;28;20245;-67
2022/12/11 01:13:36;;;;;;;41.47;19.27;;;1.20;99.90;;;;;;5073873;28;20257;-67
2022/12/11 01:16:10;;;;;;;44.87;17.30;;;1.20;99.90;;;;;;5068319;28;20186;-67
2022/12/11 01:18:37;;;;;;;34.43;18.97;;;1.20;99.90;;;;;;5052564;28;20174;-67
2022/12/11 01:21:11;;;;;;;36.63;18.40;;;1.20;99.90;;;;;;5056763;28;20171;-68
2022/12/11 01:23:37;;;;;;;42.67;17.77;;;1.20;99.90;;;;;;5072556;28;20199;-67
2022/12/11 01:26:11;;;;;;;25.33;16.40;;;1.20;99.90;;;;;;5067830;28;20250;-67
2022/12/11 01:28:37;;;;;;;36.87;18.90;;;1.30;99.90;;;;;;5052658;28;20166;-68
2022/12/11 01:31:07;;;;;;;34.97;20.57;;;1.30;99.90;;;;;;5055765;28;20706;-67
2022/12/11 01:33:33;;;;;;;28.80;14.73;;;1.30;99.90;;;;;;5072526;28;20166;-67
2022/12/11 01:35:58;;;;;;;31.73;16.43;;;1.20;99.90;;;;;;5069037;28;20197;-68
2022/12/11 01:38:24;;;;;;;46.10;16.87;;;1.20;99.90;;;;;;5052119;28;20166;-68
2022/12/11 01:40:50;;;;;;;30.97;16.77;;;1.10;99.90;;;;;;5053436;28;20659;-67
2022/12/11 01:43:16;;;;;;;23.50;16.80;;;1.00;99.90;;;;;;5072016;28;20198;-67
2022/12/11 01:45:43;;;;;;;42.73;17.27;;;1.00;99.90;;;;;;5071881;28;20167;-67
2022/12/11 01:48:11;;;;;;;30.13;17.33;;;1.00;99.90;;;;;;5052155;28;20181;-67
2022/12/11 01:51:06;;;;;;;37.47;19.47;;;1.10;99.90;;;;;;5051761;28;20584;-68
2022/12/11 01:53:35;;;;;;;32.83;16.20;;;1.10;99.90;;;;;;5015087;28;20202;-67
2022/12/11 01:56:03;;;;;;;31.80;19.13;;;1.10;99.90;;;;;;5035840;28;20250;-67
2022/12/11 01:58:33;;;;;;;23.73;15.97;;;1.10;99.90;;;;;;5072109;28;20544;-67
2022/12/11 02:01:01;;;;;;;23.63;14.23;;;1.10;99.90;;;;;;5069848;28;20265;-67
2022/12/11 02:03:26;;;;;;;21.20;14.43;;;1.10;99.90;;;;;;5052261;28;20178;-67
2022/12/11 02:05:52;;;;;;;24.43;13.40;;;1.10;99.90;;;;;;5051990;28;20179;-67
2022/12/11 02:08:18;;;;;;;33.27;15.93;;;1.00;99.90;;;;;;5072952;28;20174;-67
2022/12/11 02:11:02;;;;;;;30.70;16.63;;;1.00;99.90;;;;;;5071461;28;20174;-67
2022/12/11 02:13:53;;;;;;;35.57;15.97;;;1.10;99.90;;;;;;5031811;28;20183;-68
2022/12/11 02:16:46;;;;;;;26.93;15.40;;;1.10;99.90;;;;;;5070715;28;20246;-66
2022/12/11 02:19:30;;;;;;;26.97;15.43;;;1.20;99.90;;;;;;5063610;28;20201;-66
2022/12/11 02:21:57;;;;;;;28.50;15.33;;;1.10;99.90;;;;;;5082290;22;20716;-64
2022/12/11 02:24:51;;;;;;;29.83;14.87;;;1.10;99.90;;;;;;5071617;28;20262;-64
2022/12/11 02:27:27;;;;;;;24.03;14.10;;;1.10;99.90;;;;;;5051518;28;20171;-64
2022/12/11 02:30:03;;;;;;;18.10;13.60;;;1.10;99.90;;;;;;5051362;28;20174;-64
2022/12/11 02:32:53;;;;;;;20.77;15.03;;;1.00;99.90;;;;;;5051549;28;20221;-64
2022/12/11 02:35:32;;;;;;;21.67;15.43;;;1.10;99.90;;;;;;5060318;28;20260;-64
2022/12/11 02:38:03;;;;;;;20.07;13.30;;;1.10;99.90;;;;;;5071490;28;20654;-64
2022/12/11 02:40:31;;;;;;;16.57;14.27;;;1.10;99.90;;;;;;5070968;28;20206;-64
2022/12/11 02:43:01;;;;;;;22.47;16.17;;;1.10;99.90;;;;;;5071194;28;20190;-64
2022/12/11 02:45:27;;;;;;;21.77;14.90;;;1.20;99.90;;;;;;5071232;28;20170;-64
2022/12/11 02:47:57;;;;;;;27.53;16.37;;;1.20;99.90;;;;;;5071211;28;20175;-64
2022/12/11 02:50:24;;;;;;;22.00;15.67;;;1.30;99.90;;;;;;5071182;28;20730;-64
2022/12/11 02:52:54;;;;;;;23.30;15.23;;;1.30;99.90;;;;;;5071223;28;20277;-64
2022/12/11 02:55:22;;;;;;;34.40;17.40;;;1.30;99.90;;;;;;5071266;28;20201;-64
2022/12/11 02:58:00;;;;;;;26.00;15.50;;;1.30;99.90;;;;;;5070023;28;20174;-64
2022/12/11 03:00:26;;;;;;;24.57;16.57;;;1.30;99.90;;;;;;5070845;28;20225;-64
2022/12/11 03:02:52;;;;;;;22.23;14.97;;;1.30;99.90;;;;;;5071311;28;20233;-64
2022/12/11 03:05:17;;;;;;;25.27;14.10;;;1.30;99.90;;;;;;5070903;28;20179;-64
2022/12/11 03:07:44;;;;;;;25.27;14.87;;;1.40;99.90;;;;;;5075123;28;20169;-64
2022/12/11 03:10:13;;;;;;;23.10;13.17;;;1.40;99.90;;;;;;5074512;28;20663;-64
2022/12/11 03:12:42;;;;;;;18.70;15.47;;;1.40;99.90;;;;;;5074688;28;20194;-64
2022/12/11 03:15:12;;;;;;;29.80;17.03;;;1.40;99.90;;;;;;5090238;28;20178;-64
2022/12/11 03:17:57;;;;;;;19.33;13.07;;;1.30;99.90;;;;;;5075033;28;20202;-64
2022/12/11 03:20:46;;;;;;;33.53;15.57;;;1.30;99.90;;;;;;5074411;28;20194;-64
2022/12/11 03:23:31;;;;;;;28.63;16.60;;;1.30;99.90;;;;;;5074692;28;20198;-64
2022/12/11 03:26:02;;;;;;;27.37;14.43;;;1.30;99.90;;;;;;5074548;28;20204;-64
2022/12/11 03:28:56;;;;;;;17.77;12.67;;;1.30;99.90;;;;;;5074617;28;20174;-64
2022/12/11 03:31:28;;;;;;;25.43;15.73;;;1.20;99.90;;;;;;5059770;28;20182;-71
2022/12/11 03:34:01;;;;;;;17.10;13.57;;;1.20;99.90;;;;;;5077993;28;20654;-68
2022/12/11 03:36:33;;;;;;;17.40;13.33;;;1.20;99.90;;;;;;5077033;28;20228;-69
2022/12/11 03:39:04;;;;;;;28.23;14.80;;;1.20;99.90;;;;;;5078157;28;20190;-68
2022/12/11 03:41:32;;;;;;;26.10;12.70;;;1.20;99.90;;;;;;5078758;28;20249;-69
2022/12/11 03:43:59;;;;;;;20.17;12.80;;;1.20;99.90;;;;;;5079225;28;20219;-71
2022/12/11 03:46:31;;;;;;;15.63;12.33;;;1.20;99.90;;;;;;5079378;28;20174;-69
2022/12/11 03:49:04;;;;;;;13.87;11.73;;;1.20;99.90;;;;;;5079681;28;20162;-70
2022/12/11 03:51:32;;;;;;;23.60;13.17;;;1.20;99.90;;;;;;5078812;28;20371;-69
2022/12/11 03:53:59;;;;;;;14.13;12.53;;;1.10;99.90;;;;;;5078562;28;20543;-68
2022/12/11 03:56:27;;;;;;;19.37;13.13;;;1.10;99.90;;;;;;5078450;28;20185;-68
2022/12/11 03:58:53;;;;;;;16.33;12.13;;;1.00;99.90;;;;;;5077662;28;20281;-70
2022/12/11 04:01:19;;;;;;;17.57;13.67;;;1.10;99.90;;;;;;5079016;28;20206;-68
2022/12/11 04:03:44;;;;;;;19.20;13.27;;;1.10;99.90;;;;;;5079727;28;20166;-68
2022/12/11 04:06:10;;;;;;;21.23;13.43;;;1.10;99.90;;;;;;5079471;28;20670;-70
2022/12/11 04:08:35;;;;;;;17.87;12.60;;;1.10;99.90;;;;;;5079250;28;20231;-70
2022/12/11 04:15:00;;;;;;;16.03;13.17;;;1.20;99.90;;;;;;5079784;28;20194;-68
2022/12/11 04:16:33;;;;;;;29.87;14.83;;;1.20;99.90;;;;;;5079097;28;20216;-70
2022/12/11 04:24:27;;;;;;;12.27;11.03;;;1.10;99.90;;;;;;5078774;28;20196;-69
2022/12/11 04:26:52;;;;;;;16.73;12.63;;;1.10;99.90;;;;;;5078900;28;20174;-70
2022/12/11 04:29:18;;;;;;;21.80;10.40;;;1.10;99.90;;;;;;5078822;28;20174;-70
2022/12/11 04:31:44;;;;;;;13.63;12.30;;;1.10;99.90;;;;;;5078707;28;20277;-70
2022/12/11 04:34:10;;;;;;;23.60;12.70;;;1.00;99.90;;;;;;5078724;28;20638;-67
2022/12/11 04:36:36;;;;;;;13.13;10.43;;;1.00;99.90;;;;;;5077678;28;20185;-69
2022/12/11 04:39:04;;;;;;;15.03;11.33;;;1.00;99.90;;;;;;5078545;28;20198;-68
2022/12/11 04:41:29;;;;;;;15.43;11.23;;;0.90;99.90;;;;;;5078116;28;20651;-70
2022/12/11 04:43:55;;;;;;;14.00;12.47;;;1.00;99.90;;;;;;5078882;28;20550;-70
2022/12/11 04:46:22;;;;;;;14.27;12.17;;;0.90;99.90;;;;;;5078416;28;20178;-69
2022/12/11 04:48:49;;;;;;;17.30;12.23;;;1.00;99.90;;;;;;5078192;28;20238;-70
2022/12/11 04:51:15;;;;;;;12.80;11.33;;;1.00;99.90;;;;;;5079030;28;20568;-69
2022/12/11 04:53:41;;;;;;;13.47;11.37;;;1.00;99.90;;;;;;5078027;28;20182;-70
2022/12/11 04:56:09;;;;;;;14.43;11.93;;;1.00;99.90;;;;;;5078125;28;20257;-66
2022/12/11 04:58:35;;;;;;;22.47;14.40;;;1.00;99.90;;;;;;5072878;28;20531;-65
2022/12/11 05:01:12;;;;;;;14.70;13.30;;;1.00;99.90;;;;;;5072617;28;20178;-65
2022/12/11 05:03:38;;;;;;;13.70;10.97;;;1.00;99.90;;;;;;5071381;28;20197;-65
2022/12/11 05:06:04;;;;;;;15.10;12.80;;;1.00;99.90;;;;;;5072067;28;20657;-65
2022/12/11 05:08:29;;;;;;;17.60;11.73;;;1.00;99.90;;;;;;5072644;28;20204;-65
2022/12/11 05:11:00;;;;;;;18.80;12.43;;;1.00;99.90;;;;;;5072337;28;20201;-65
2022/12/11 05:13:26;;;;;;;14.07;12.43;;;1.00;99.90;;;;;;5072617;28;20194;-65
2022/12/11 05:15:52;;;;;;;13.63;11.20;;;1.00;99.90;;;;;;5072612;28;20170;-65
2022/12/11 05:18:18;;;;;;;17.87;13.10;;;1.10;99.90;;;;;;5072373;28;20185;-65
2022/12/11 05:20:44;;;;;;;20.27;14.13;;;1.10;99.90;;;;;;5072187;28;20212;-65
2022/12/11 05:23:09;;;;;;;13.27;12.00;;;1.10;99.90;;;;;;5072209;28;20308;-65
2022/12/11 05:25:35;;;;;;;13.00;11.20;;;1.00;99.90;;;;;;5072365;28;20178;-65
2022/12/11 05:28:00;;;;;;;12.40;10.97;;;1.00;99.90;;;;;;5072422;28;20203;-65
2022/12/11 05:30:26;;;;;;;22.10;12.40;;;1.00;99.90;;;;;;5071541;28;20182;-65
2022/12/11 05:32:52;;;;;;;15.33;12.40;;;1.00;99.90;;;;;;5072201;28;20271;-65
2022/12/11 05:35:17;;;;;;;17.20;12.90;;;1.00;99.90;;;;;;5072054;28;20531;-65
2022/12/11 05:37:43;;;;;;;20.60;14.07;;;1.00;99.90;;;;;;5072359;28;20182;-65
2022/12/11 05:40:11;;;;;;;11.33;10.10;;;1.00;99.90;;;;;;5070558;28;20296;-65
2022/12/11 05:42:37;;;;;;;14.03;12.63;;;1.00;99.90;;;;;;5072508;28;20692;-65
2022/12/11 05:45:03;;;;;;;15.33;11.13;;;0.90;99.90;;;;;;5071814;28;20257;-65
2022/12/11 05:47:30;;;;;;;14.13;11.13;;;0.90;99.90;;;;;;5072494;28;20217;-65
2022/12/11 05:49:56;;;;;;;23.83;13.50;;;0.90;99.90;;;;;;5071683;28;20236;-65
2022/12/11 05:52:21;;;;;;;13.03;11.10;;;0.90;99.90;;;;;;5070845;28;20598;-66
2022/12/11 05:54:49;;;;;;;19.73;10.93;;;0.90;99.90;;;;;;5071887;28;20185;-65
2022/12/11 05:57:15;;;;;;;16.60;12.13;;;0.90;99.90;;;;;;5072106;28;20209;-65
2022/12/11 05:59:40;;;;;;;16.20;13.57;;;0.90;99.90;;;;;;5071467;28;20236;-65
2022/12/11 06:02:06;;;;;;;15.10;11.67;;;0.90;99.90;;;;;;5071898;28;20190;-65
2022/12/11 06:04:32;;;;;;;13.00;11.77;;;0.90;99.90;;;;;;5070490;28;20205;-65
2022/12/11 06:06:57;;;;;;;14.33;11.13;;;0.90;99.90;;;;;;5071750;28;20225;-65
2022/12/11 06:09:23;;;;;;;21.40;13.93;;;0.90;99.90;;;;;;5071428;28;20452;-66
2022/12/11 06:11:49;;;;;;;15.93;11.83;;;0.90;99.90;;;;;;5071675;28;20201;-66
2022/12/11 06:14:14;;;;;;;20.60;14.30;;;1.00;99.90;;;;;;5071578;28;20173;-65
2022/12/11 06:16:40;;;;;;;14.53;11.93;;;1.00;99.90;;;;;;5071749;28;20178;-66
2022/12/11 06:19:06;;;;;;;15.17;11.93;;;1.00;99.90;;;;;;5071118;28;20643;-65
2022/12/11 06:21:32;;;;;;;12.40;11.13;;;1.10;99.90;;;;;;5071555;28;20542;-65
2022/12/11 06:24:01;;;;;;;13.23;11.97;;;1.10;99.90;;;;;;5070634;28;20642;-66
2022/12/11 06:26:27;;;;;;;13.37;10.40;;;1.10;99.90;;;;;;5070761;28;20182;-65
2022/12/11 06:28:53;;;;;;;13.67;11.83;;;1.10;99.90;;;;;;5070372;28;20681;-65
2022/12/11 06:31:19;;;;;;;22.50;11.97;;;1.10;99.90;;;;;;5063984;28;20604;-66
2022/12/11 06:33:46;;;;;;;12.20;11.00;;;1.10;99.90;;;;;;5050573;28;20639;-65
2022/12/11 06:36:18;;;;;;;13.97;12.50;;;1.10;99.90;;;;;;5065992;28;20186;-65
2022/12/11 06:38:44;;;;;;;19.10;11.80;;;1.10;99.90;;;;;;5070425;28;20552;-66
2022/12/11 06:41:10;;;;;;;14.63;13.13;;;1.10;99.90;;;;;;5071600;28;20570;-65
2022/12/11 06:43:39;;;;;;;14.90;12.53;;;1.10;99.90;;;;;;5074200;28;20194;-66
2022/12/11 06:46:10;;;;;;;19.63;11.93;;;1.20;99.90;;;;;;5073974;28;20174;-66
2022/12/11 06:48:36;;;;;;;19.93;12.57;;;1.20;99.90;;;;;;5074109;28;20165;-66
2022/12/11 06:51:11;;;;;;;16.27;12.93;;;1.20;99.90;;;;;;5073655;28;20174;-66
2022/12/11 06:53:37;;;;;;;15.30;12.07;;;1.10;99.90;;;;;;5074023;28;20292;-65
2022/12/11 06:56:09;;;;;;;15.40;13.80;;;1.20;99.90;;;;;;5073835;28;20686;-65
2022/12/11 06:58:35;;;;;;;14.93;12.93;;;1.10;99.90;;;;;;5073938;28;20564;-65
2022/12/11 07:01:02;;;;;;;16.13;13.20;;;1.10;99.90;;;;;;5073273;28;20223;-65
2022/12/11 07:03:28;;;;;;;17.20;12.90;;;1.10;99.90;;;;;;5060063;28;20201;-67
2022/12/11 07:05:53;;;;;;;17.63;13.23;;;1.20;99.90;;;;;;5072030;28;20174;-66
2022/12/11 07:08:19;;;;;;;24.23;12.57;;;1.20;99.90;;;;;;5073742;28;20495;-66
2022/12/11 07:10:44;;;;;;;12.67;11.33;;;1.20;99.90;;;;;;5073303;28;20682;-66
2022/12/11 07:13:10;;;;;;;12.87;11.73;;;1.10;99.90;;;;;;5072163;28;20232;-66
2022/12/11 07:15:36;;;;;;;21.13;13.70;;;1.10;99.90;;;;;;5073727;28;20236;-65
2022/12/11 07:18:01;;;;;;;16.97;13.40;;;1.10;99.90;;;;;;5073498;28;20177;-66
2022/12/11 07:20:27;;;;;;;18.67;14.70;;;1.20;99.90;;;;;;5073161;28;20198;-66
2022/12/11 07:22:53;;;;;;;17.87;12.67;;;1.20;99.90;;;;;;5023360;28;1413012;-65
2022/12/11 07:25:19;;;;;;;19.77;13.07;;;1.20;99.90;;;;;;5074293;28;20204;-65
2022/12/11 07:27:44;;;;;;;16.90;12.13;;;1.20;99.90;;;;;;5074837;28;20533;-65
2022/12/11 07:30:11;;;;;;;17.40;12.87;;;1.20;99.90;;;;;;5074179;28;20224;-66
2022/12/11 07:32:37;;;;;;;15.57;11.53;;;1.20;99.90;;;;;;5074513;28;20273;-66
2022/12/11 07:35:03;;;;;;;13.50;11.83;;;1.20;99.90;;;;;;5074157;28;20221;-66
2022/12/11 07:37:29;;;;;;;16.50;12.53;;;1.20;99.90;;;;;;5074565;28;20174;-66
2022/12/11 07:39:54;;;;;;;18.30;12.67;;;1.20;99.90;;;;;;5074039;28;20335;-66
2022/12/11 07:42:20;;;;;;;14.30;12.80;;;1.30;99.90;;;;;;5072820;28;20201;-65
2022/12/11 07:44:45;;;;;;;20.97;12.93;;;1.30;99.90;;;;;;5074339;28;20173;-65
2022/12/11 07:47:11;;;;;;;19.70;12.30;;;1.30;99.90;;;;;;5074121;28;20206;-65
2022/12/11 07:49:37;;;;;;;13.80;12.30;;;1.30;99.90;;;;;;5074118;28;20170;-66
2022/12/11 07:52:02;;;;;;;13.00;11.70;;;1.20;99.90;;;;;;5073757;28;20221;-66
2022/12/11 07:54:28;;;;;;;21.60;12.40;;;1.20;99.90;;;;;;5074135;28;20170;-66
2022/12/11 07:56:54;;;;;;;14.47;12.47;;;1.20;99.90;;;;;;5073876;28;20268;-66
2022/12/11 07:59:19;;;;;;;21.33;13.67;;;1.20;99.90;;;;;;5072295;28;20577;-66
2022/12/11 08:01:45;;;;;;;25.03;11.83;;;1.30;99.90;;;;;;5066242;28;20340;-65
2022/12/11 08:04:14;;;;;;;15.33;12.27;;;1.20;99.90;;;;;;5053958;28;20206;-66
2022/12/11 08:06:41;;;;;;;20.20;12.03;;;1.30;99.90;;;;;;5066034;28;20608;-66
2022/12/11 08:09:09;;;;;;;15.00;12.60;;;1.40;99.90;;;;;;5072113;28;20178;-66
2022/12/11 08:11:35;;;;;;;15.73;12.43;;;1.30;99.90;;;;;;5073612;28;20251;-66
2022/12/11 08:14:02;;;;;;;14.53;12.73;;;1.40;99.90;;;;;;5073635;28;20211;-66
2022/12/11 08:16:28;;;;;;;18.47;12.87;;;1.30;99.90;;;;;;5073656;28;20182;-66
2022/12/11 08:18:54;;;;;;;16.43;13.40;;;1.40;99.90;;;;;;5073636;28;20647;-66
2022/12/11 08:21:22;;;;;;;22.80;12.70;;;1.40;99.90;;;;;;5072766;28;20174;-66
2022/12/11 08:23:49;;;;;;;20.77;12.93;;;1.40;99.90;;;;;;5098292;22;20595;-68
2022/12/11 08:26:18;;;;;;;16.27;13.13;;;1.40;99.90;;;;;;5071977;28;20198;-68
2022/12/11 08:28:44;;;;;;;18.27;13.20;;;1.40;99.90;;;;;;5073532;28;20259;-68
2022/12/11 08:31:11;;;;;;;22.10;13.57;;;1.50;99.90;;;;;;5067074;28;20923;-68
2022/12/11 08:33:38;;;;;;;20.60;13.87;;;1.50;99.90;;;;;;5073405;28;20232;-67
2022/12/11 08:36:06;;;;;;;14.03;12.53;;;1.50;99.90;;;;;;5078688;28;20176;-67
2022/12/11 08:38:33;;;;;;;18.40;14.67;;;1.50;99.90;;;;;;5093829;28;20457;-67
2022/12/11 08:40:58;;;;;;;18.87;11.30;;;1.50;99.90;;;;;;5089868;28;20210;-67
2022/12/11 08:43:24;;;;;;;13.87;12.40;;;1.50;99.90;;;;;;5073479;28;20268;-67
2022/12/11 08:45:50;;;;;;;14.53;12.00;;;1.50;99.90;;;;;;5075314;28;20635;-68
2022/12/11 08:48:16;;;;;;;16.10;13.20;;;1.50;99.90;;;;;;5094081;28;20248;-67
2022/12/11 08:50:41;;;;;;;15.90;13.53;;;1.50;99.90;;;;;;5092056;28;20170;-67
2022/12/11 08:53:07;;;;;;;16.70;13.20;;;1.60;99.90;;;;;;5072991;28;20271;-67
2022/12/11 08:55:33;;;;;;;16.10;12.97;;;1.60;99.90;;;;;;5073228;28;20182;-66
2022/12/11 08:57:59;;;;;;;13.70;11.90;;;1.70;99.90;;;;;;5092665;28;20273;-67
2022/12/11 09:00:24;;;;;;;26.30;14.10;;;1.80;99.90;;;;;;5093057;28;20205;-67
2022/12/11 09:02:50;;;;;;;23.57;15.70;;;1.80;99.90;;;;;;5092981;28;20684;-67
2022/12/11 09:05:16;;;;;;;16.13;13.97;;;1.80;99.90;;;;;;5091244;28;20181;-67
2022/12/11 09:07:41;;;;;;;15.80;11.63;;;1.80;99.90;;;;;;5076950;28;20651;-67
2022/12/11 09:10:08;;;;;;;15.23;12.40;;;1.90;99.90;;;;;;5072495;28;20178;-67
2022/12/11 09:12:35;;;;;;;14.70;11.90;;;2.00;99.90;;;;;;5088380;28;20564;-67
2022/12/11 09:15:00;;;;;;;20.27;13.37;;;2.00;99.90;;;;;;5093686;28;20256;-68
2022/12/11 09:17:26;;;;;;;19.50;12.70;;;2.10;99.90;;;;;;5081089;28;20610;-67
2022/12/11 09:19:51;;;;;;;15.37;11.97;;;2.10;99.90;;;;;;5074839;28;20281;-67
2022/12/11 09:22:17;;;;;;;24.27;14.67;;;2.20;99.90;;;;;;5085760;28;20546;-67
2022/12/11 09:24:43;;;;;;;18.20;13.77;;;2.20;99.90;;;;;;5093299;28;20650;-67
2022/12/11 09:27:08;;;;;;;27.17;13.37;;;2.20;99.90;;;;;;5080983;28;20190;-67
2022/12/11 09:29:34;;;;;;;18.23;12.03;;;2.30;99.90;;;;;;5072277;28;20161;-67
2022/12/11 09:32:00;;;;;;;21.73;14.03;;;2.30;99.90;;;;;;5072342;28;20571;-67
2022/12/11 09:34:25;;;;;;;13.27;11.50;;;2.30;99.90;;;;;;5073195;28;20185;-66
2022/12/11 09:36:51;;;;;;;22.33;13.00;;;2.30;99.90;;;;;;5082056;28;20590;-67
2022/12/11 09:39:17;;;;;;;20.37;13.73;;;2.40;99.90;;;;;;5091973;28;20189;-67
2022/12/11 09:42:08;;;;;;;25.13;12.90;;;2.40;99.90;;;;;;5086804;28;20186;-67
2022/12/11 09:44:55;;;;;;;21.13;14.03;;;2.50;99.90;;;;;;5030969;28;20648;-67
2022/12/11 09:47:34;;;;;;;17.70;13.00;;;2.40;99.90;;;;;;5081986;28;20707;-67
2022/12/11 09:50:09;;;;;;;16.57;14.00;;;2.40;99.90;;;;;;5092031;28;20173;-67
2022/12/11 09:52:42;;;;;;;19.73;13.83;;;2.50;99.90;;;;;;5079954;28;20204;-67
2022/12/11 09:55:18;;;;;;;21.50;12.30;;;2.50;99.90;;;;;;5072661;28;20648;-67
2022/12/11 09:58:12;;;;;;;19.53;12.83;;;2.50;99.90;;;;;;5085313;28;20176;-67
2022/12/11 10:00:52;;;;;;;21.80;12.37;;;2.50;99.90;;;;;;5092025;28;20236;-66
2022/12/11 10:03:39;;;;;;;12.97;11.60;;;2.50;99.90;;;;;;5074700;28;20227;-67
2022/12/11 10:06:21;;;;;;;19.17;12.73;;;2.50;99.90;;;;;;5076635;28;20170;-67
2022/12/11 10:09:05;;;;;;;18.80;13.03;;;2.60;99.90;;;;;;5055084;28;20183;-67
2022/12/11 10:11:43;;;;;;;18.00;11.90;;;2.50;99.90;;;;;;5060801;28;20536;-67
2022/12/11 10:14:39;;;;;;;24.33;15.97;;;2.50;99.90;;;;;;5096401;28;20252;-67
2022/12/11 10:17:29;;;;;;;23.33;14.23;;;2.50;99.90;;;;;;5092695;28;20661;-67
2022/12/11 10:20:09;;;;;;;26.90;15.10;;;2.50;99.90;;;;;;5057054;28;20201;-67
2022/12/11 10:22:35;;;;;;;29.40;15.07;;;2.60;99.90;;;;;;5098303;28;20216;-66
2022/12/11 10:25:06;;;;;;;26.07;15.53;;;2.50;99.90;;;;;;5097818;28;20216;-67
2022/12/11 10:27:38;;;;;;;22.70;15.53;;;2.40;99.90;;;;;;5074381;28;20712;-67
2022/12/11 10:30:19;;;;;;;23.90;14.83;;;2.40;99.90;;;;;;5071725;28;20198;-68
2022/12/11 10:33:04;;;;;;;25.47;14.67;;;2.50;99.90;;;;;;5075763;28;20293;-67
2022/12/11 10:35:37;;;;;;;18.67;12.03;;;2.50;99.90;;;;;;5071954;28;20205;-67
2022/12/11 10:38:30;;;;;;;19.07;13.40;;;2.40;99.90;;;;;;5071725;28;20231;-67
2022/12/11 10:40:58;;;;;;;19.90;15.23;;;2.40;99.90;;;;;;5069373;28;20225;-67
2022/12/11 10:43:38;;;;;;;20.80;14.00;;;2.40;99.90;;;;;;5072440;28;20210;-67
2022/12/11 10:46:12;;;;;;;25.13;14.50;;;2.30;99.90;;;;;;5073021;28;20173;-67
2022/12/11 10:48:52;;;;;;;31.17;15.80;;;2.30;99.90;;;;;;5073402;28;20174;-67
2022/12/11 10:51:20;;;;;;;17.97;14.23;;;2.20;99.90;;;;;;5078348;28;20173;-67
2022/12/11 10:53:54;;;;;;;27.47;12.97;;;2.10;99.90;;;;;;5091736;28;20677;-67
2022/12/11 10:56:32;;;;;;;21.70;14.67;;;2.00;99.90;;;;;;5089842;28;20173;-67
2022/12/11 10:58:59;;;;;;;29.40;16.43;;;2.10;99.90;;;;;;5091560;28;20199;-66
2022/12/11 11:01:28;;;;;;;19.90;13.80;;;2.00;99.90;;;;;;5084481;28;20174;-67
2022/12/11 11:04:05;;;;;;;31.13;15.77;;;2.10;99.90;;;;;;5071222;28;20201;-67
2022/12/11 11:06:31;;;;;;;15.93;12.27;;;2.10;99.90;;;;;;5075029;28;20244;-68
2022/12/11 11:08:59;;;;;;;27.63;12.37;;;2.10;99.90;;;;;;5091099;28;20180;-67
2022/12/11 11:11:31;;;;;;;22.10;13.07;;;2.20;99.90;;;;;;5085820;28;20201;-67
2022/12/11 11:14:19;;;;;;;18.30;12.10;;;2.20;99.90;;;;;;5071116;28;20296;-67
2022/12/11 11:16:47;;;;;;;27.67;14.90;;;2.10;99.90;;;;;;5078236;28;20192;-67
2022/12/11 11:19:23;;;;;;;36.63;14.73;;;2.20;99.90;;;;;;5090790;28;20584;-67
2022/12/11 11:22:01;;;;;;;22.17;12.83;;;2.20;99.90;;;;;;5083698;28;20744;-67
2022/12/11 11:24:57;;;;;;;29.97;14.03;;;2.20;99.90;;;;;;5074085;28;20641;-67
2022/12/11 11:27:42;;;;;;;24.67;13.17;;;2.10;99.90;;;;;;5076068;28;20272;-66
2022/12/11 11:30:29;;;;;;;19.33;13.50;;;2.20;99.90;;;;;;5086228;28;20678;-66
2022/12/11 11:33:12;;;;;;;23.33;14.13;;;2.20;99.90;;;;;;5090028;28;20338;-67
2022/12/11 11:35:39;;;;;;;36.27;16.53;;;2.30;99.90;;;;;;5083248;28;20586;-67
2022/12/11 11:38:20;;;;;;;33.40;16.37;;;2.30;99.90;;;;;;5073427;28;20174;-67
2022/12/11 11:40:57;;;;;;;32.67;16.37;;;2.30;99.90;;;;;;5086069;28;20212;-67
2022/12/11 11:43:37;;;;;;;27.30;17.13;;;2.30;99.90;;;;;;5094717;28;20192;-66
2022/12/11 11:46:15;;;;;;;35.47;17.30;;;2.40;99.90;;;;;;5080801;28;20200;-67
2022/12/11 11:49:03;;;;;;;34.67;17.37;;;2.40;99.90;;;;;;5074569;28;20170;-66
2022/12/11 11:51:37;;;;;;;20.93;14.43;;;2.40;99.90;;;;;;5091692;28;20853;-67
2022/12/11 11:54:17;;;;;;;24.57;15.00;;;2.40;99.90;;;;;;5094505;28;20180;-67
2022/12/11 11:56:43;;;;;;;27.13;16.40;;;2.40;99.90;;;;;;5075751;28;20166;-67
2022/12/11 11:59:22;;;;;;;34.40;15.03;;;2.30;99.90;;;;;;5073652;28;20186;-67
2022/12/11 12:01:48;;;;;;;23.63;14.57;;;2.40;99.90;;;;;;5093320;28;20182;-67
2022/12/11 12:04:13;;;;;;;32.73;14.73;;;2.40;99.90;;;;;;5094665;28;20169;-66
2022/12/11 12:07:10;;;;;;;28.60;15.90;;;2.50;99.90;;;;;;5077706;28;20178;-67
2022/12/11 12:09:53;;;;;;;31.30;15.83;;;2.50;99.90;;;;;;5075376;28;20221;-67
2022/12/11 12:12:21;;;;;;;30.17;15.03;;;2.50;99.90;;;;;;5097056;28;20193;-67
2022/12/11 12:15:19;;;;;;;21.53;14.10;;;2.50;99.90;;;;;;5093472;28;20162;-67
2022/12/11 12:17:57;;;;;;;37.10;16.07;;;2.50;99.90;;;;;;5074142;28;20177;-66
2022/12/11 12:20:41;;;;;;;28.17;16.00;;;2.50;99.90;;;;;;5077642;28;20200;-67
2022/12/11 12:23:16;;;;;;;28.03;14.50;;;2.40;99.90;;;;;;5093803;28;20197;-67
2022/12/11 12:25:48;;;;;;;14.27;12.87;;;2.50;99.90;;;;;;5086521;28;20249;-67
2022/12/11 12:28:43;;;;;;;32.80;15.20;;;2.50;99.90;;;;;;5073646;28;20162;-67
2022/12/11 12:31:34;;;;;;;19.83;14.23;;;2.50;99.90;;;;;;5050358;28;20211;-67
2022/12/11 12:34:20;;;;;;;23.90;13.80;;;2.60;99.90;;;;;;5094018;28;20186;-67
2022/12/11 12:37:18;;;;;;;30.50;15.07;;;2.70;99.90;;;;;;5092871;28;20169;-67
2022/12/11 12:40:00;;;;;;;19.77;13.47;;;2.70;99.90;;;;;;5092580;28;20617;-67
2022/12/11 12:42:42;;;;;;;28.13;13.93;;;2.70;99.90;;;;;;5053351;28;20190;-67
2022/12/11 12:45:13;;;;;;;25.17;16.33;;;2.70;99.90;;;;;;5055408;28;20547;-67
2022/12/11 12:47:45;;;;;;;18.67;13.40;;;2.70;99.90;;;;;;5093661;28;20205;-67
2022/12/11 12:50:16;;;;;;;25.40;15.43;;;2.80;99.90;;;;;;5091342;28;20649;-67
2022/12/11 12:52:42;;;;;;;35.00;16.57;;;2.80;99.90;;;;;;5069930;28;20266;-67
2022/12/11 12:55:30;;;;;;;30.03;16.10;;;2.80;99.90;;;;;;5055172;28;20179;-67
2022/12/11 12:58:05;;;;;;;42.20;17.97;;;2.80;99.90;;;;;;5092318;28;20196;-67
2022/12/11 13:00:36;;;;;;;22.97;16.00;;;2.90;99.90;;;;;;5089191;28;20201;-67